Atqasuk, Alaska
Current Conditions -  °F | °C
As of 3:56 PM on Sunday 23 Nov 2014 (Local Time) from PATQ Reporting Station
Clear Clear  
Wind Chill: -28°   Ceiling: Unl
Heat Index: -16°   Visibility: 10mi
Dew Point: -21°   Wind: 5mph
Humidity: 78%   Direction: 110°ESE
Pressure: 29.71"   Gusts: NA
Location:  70.47°N, 157.4°W
Report Text: PATQ 240056Z AUTO 11004KT 10SM CLR M27/M29 A2971 RMK AO2 TSNO T12661294 SLP067 $
Loading
Personal Weather Stations






























Interactive Weather Map New forecast layout! Learn more

10-Day Weather Forecast

Advertisements
Track Severe Weather on mobile